Time;durP1;ratioP1;P1;durP2;ratioP2;P2;SDS_P1;SDS_P2;PMS_P1;PMS_P2;Temp;Humidity;BMP_temperature;BMP_pressure;BME280_temperature;BME280_humidity;BME280_pressure;Samples;Min_cycle;Max_cycle;Signal;HPM_P1;HPM_P2
2022/10/12 00:00:12;;;;;;;;;;;20.80;53.10;;;;;;5036303;28;20023;-72
2022/10/12 00:02:37;;;;;;;;;;;20.90;53.10;;;;;;5035097;28;19923;-72
2022/10/12 00:05:03;;;;;;;;;;;20.90;53.00;;;;;;5052823;28;20451;-72
2022/10/12 00:07:28;;;;;;;;;;;20.90;53.00;;;;;;5025870;28;19913;-72
2022/10/12 00:09:54;;;;;;;;;;;20.90;53.10;;;;;;5028067;28;19955;-72
2022/10/12 00:12:19;;;;;;;;;;;20.80;53.10;;;;;;5046279;28;19919;-73
2022/10/12 00:14:45;;;;;;;;;;;20.90;53.00;;;;;;5050838;28;20384;-72
2022/10/12 00:17:10;;;;;;;;;;;20.90;53.00;;;;;;5051691;28;20299;-72
2022/10/12 00:19:36;;;;;;;;;;;20.90;52.90;;;;;;5050897;28;19991;-72
2022/10/12 00:22:01;;;;;;;;;;;20.90;52.90;;;;;;5050697;28;19923;-71
2022/10/12 00:24:27;;;;;;;;;;;20.80;52.90;;;;;;5052051;28;19909;-72
2022/10/12 00:26:52;;;;;;;;;;;20.80;52.90;;;;;;5029725;28;19924;-72
2022/10/12 00:29:18;;;;;;;;;;;20.90;52.90;;;;;;5051713;28;19916;-72
2022/10/12 00:31:43;;;;;;;;;;;20.90;52.80;;;;;;5032732;28;20572;-72
2022/10/12 00:34:08;;;;;;;;;;;20.90;52.80;;;;;;5052043;28;19927;-72
2022/10/12 00:36:34;;;;;;;;;;;20.80;52.80;;;;;;5033971;28;19909;-72
2022/10/12 00:39:00;;;;;;;;;;;20.80;52.80;;;;;;5049174;28;20401;-73
2022/10/12 00:41:30;;;;;;;;;;;20.80;52.70;;;;;;5051664;28;19909;-71
2022/10/12 00:43:55;;;;;;;;;;;20.80;52.80;;;;;;5026818;28;19920;-72
2022/10/12 00:46:36;;;;;;;;;;;20.80;52.80;;;;;;5051997;28;19913;-72
2022/10/12 00:49:22;;;;;;;;;;;20.80;52.80;;;;;;5034370;28;19913;-72
2022/10/12 00:51:51;;;;;;;;;;;20.80;52.70;;;;;;5055511;28;19909;-72
2022/10/12 00:54:18;;;;;;;;;;;20.80;52.80;;;;;;5031921;28;19909;-72
2022/10/12 00:56:44;;;;;;;;;;;20.80;52.80;;;;;;5033010;28;20468;-72
2022/10/12 00:59:11;;;;;;;;;;;20.80;52.70;;;;;;5030191;28;20011;-72
2022/10/12 01:01:36;;;;;;;;;;;20.80;52.20;;;;;;5014256;28;19915;-72
2022/10/12 01:04:02;;;;;;;;;;;20.80;53.30;;;;;;5017713;28;19917;-72
2022/10/12 01:06:28;;;;;;;;;;;20.80;52.70;;;;;;5044716;28;19925;-72
2022/10/12 01:08:53;;;;;;;;;;;20.80;52.60;;;;;;5051732;28;20567;-72
2022/10/12 01:11:19;;;;;;;;;;;20.70;52.80;;;;;;5034594;28;19912;-72
2022/10/12 01:13:44;;;;;;;;;;;20.70;53.60;;;;;;5051073;28;19916;-72
2022/10/12 01:16:13;;;;;;;;;;;20.60;52.90;;;;;;5026421;28;20008;-72
2022/10/12 01:18:40;;;;;;;;;;;20.60;53.00;;;;;;5016352;28;19940;-72
2022/10/12 01:21:16;;;;;;;;;;;20.60;53.00;;;;;;5033014;28;19916;-72
2022/10/12 01:23:47;;;;;;;;;;;20.60;53.10;;;;;;5033018;28;19948;-72
2022/10/12 01:26:12;;;;;;;;;;;20.60;53.10;;;;;;5033571;28;19921;-71
2022/10/12 01:28:53;;;;;;;;;;;20.60;53.10;;;;;;5049850;28;19966;-72
2022/10/12 01:31:37;;;;;;;;;;;20.60;53.00;;;;;;5043149;28;19923;-72
2022/10/12 01:34:31;;;;;;;;;;;20.70;52.80;;;;;;5049907;28;19916;-72
2022/10/12 01:37:07;;;;;;;;;;;20.80;52.70;;;;;;5032589;28;19917;-72
2022/10/12 01:39:33;;;;;;;;;;;20.90;52.40;;;;;;5032996;28;20434;-72
2022/10/12 01:41:59;;;;;;;;;;;21.00;52.30;;;;;;5030114;28;19913;-72
2022/10/12 01:44:25;;;;;;;;;;;21.00;52.00;;;;;;5031557;28;19970;-72
2022/10/12 01:46:54;;;;;;;;;;;21.10;51.80;;;;;;5022986;28;19921;-72
2022/10/12 01:49:21;;;;;;;;;;;21.10;51.60;;;;;;5008153;28;19928;-72
2022/10/12 01:51:51;;;;;;;;;;;21.20;51.70;;;;;;5050182;28;20360;-72
2022/10/12 01:54:40;;;;;;;;;;;21.20;51.60;;;;;;5031702;28;19948;-72
2022/10/12 01:57:13;;;;;;;;;;;21.20;51.50;;;;;;5012671;28;19913;-71
2022/10/12 01:59:43;;;;;;;;;;;21.20;51.50;;;;;;5031332;28;19912;-72
2022/10/12 02:02:13;;;;;;;;;;;21.20;51.50;;;;;;5049275;28;19960;-72
2022/10/12 02:04:42;;;;;;;;;;;21.20;51.60;;;;;;5028037;28;20326;-72
2022/10/12 02:07:08;;;;;;;;;;;21.20;51.70;;;;;;5029345;28;19999;-72
2022/10/12 02:09:33;;;;;;;;;;;21.10;51.50;;;;;;5032524;28;20005;-72
2022/10/12 02:11:59;;;;;;;;;;;21.20;51.60;;;;;;5032860;28;20458;-72
2022/10/12 02:14:26;;;;;;;;;;;21.10;51.60;;;;;;5032949;28;19921;-72
2022/10/12 02:16:57;;;;;;;;;;;21.10;51.70;;;;;;5032953;28;19913;-72
2022/10/12 02:19:26;;;;;;;;;;;21.10;51.70;;;;;;5046524;28;19917;-72
2022/10/12 02:21:52;;;;;;;;;;;21.10;51.80;;;;;;5031296;28;19913;-72
2022/10/12 02:24:18;;;;;;;;;;;21.00;51.80;;;;;;5048585;28;20398;-72
2022/10/12 02:26:43;;;;;;;;;;;20.90;51.90;;;;;;5015198;28;20128;-72
2022/10/12 02:29:09;;;;;;;;;;;20.90;52.10;;;;;;5050151;28;20372;-72
2022/10/12 02:31:38;;;;;;;;;;;20.80;52.10;;;;;;5031594;28;19967;-72
2022/10/12 02:34:07;;;;;;;;;;;20.80;52.20;;;;;;5051233;28;20393;-72
2022/10/12 02:36:38;;;;;;;;;;;20.80;52.30;;;;;;5028397;28;19912;-72
2022/10/12 02:39:09;;;;;;;;;;;20.80;52.40;;;;;;5030333;28;19959;-72
2022/10/12 02:41:35;;;;;;;;;;;20.80;52.40;;;;;;5029721;28;20284;-71
2022/10/12 02:44:02;;;;;;;;;;;20.70;52.50;;;;;;5020216;28;20007;-72
2022/10/12 02:46:27;;;;;;;;;;;20.70;52.60;;;;;;5035424;28;19925;-73
2022/10/12 02:48:53;;;;;;;;;;;20.60;52.60;;;;;;5034908;28;19978;-72
2022/10/12 02:51:18;;;;;;;;;;;20.60;52.70;;;;;;5014985;28;19917;-72
2022/10/12 02:53:44;;;;;;;;;;;20.60;52.70;;;;;;5045701;28;19921;-72
2022/10/12 02:56:10;;;;;;;;;;;20.60;52.70;;;;;;5033278;28;20087;-73
2022/10/12 02:58:35;;;;;;;;;;;20.60;52.70;;;;;;5035626;28;19955;-72
2022/10/12 03:01:01;;;;;;;;;;;20.60;52.80;;;;;;5053376;28;19952;-73
2022/10/12 03:03:26;;;;;;;;;;;20.60;52.90;;;;;;5051511;28;19913;-72
2022/10/12 03:05:52;;;;;;;;;;;20.50;52.80;;;;;;5032823;28;19921;-73
2022/10/12 03:08:17;;;;;;;;;;;20.50;52.80;;;;;;5028215;28;20320;-72
2022/10/12 03:10:42;;;;;;;;;;;20.50;52.80;;;;;;5032313;28;19909;-72
2022/10/12 03:13:08;;;;;;;;;;;20.50;52.80;;;;;;5033542;28;19913;-72
2022/10/12 03:15:33;;;;;;;;;;;20.50;52.90;;;;;;5031974;28;19996;-72
2022/10/12 03:17:59;;;;;;;;;;;20.50;52.90;;;;;;5033883;28;19917;-72
2022/10/12 03:20:24;;;;;;;;;;;20.50;52.80;;;;;;5033307;28;19917;-72
2022/10/12 03:22:50;;;;;;;;;;;20.60;52.90;;;;;;5033917;28;20380;-73
2022/10/12 03:25:15;;;;;;;;;;;20.60;52.70;;;;;;5029373;28;20399;-72
2022/10/12 03:27:41;;;;;;;;;;;20.60;52.50;;;;;;5032627;28;20238;-73
2022/10/12 03:30:06;;;;;;;;;;;20.70;52.50;;;;;;5031329;28;20304;-73
2022/10/12 03:32:32;;;;;;;;;;;20.70;52.30;;;;;;5031309;28;19917;-73
2022/10/12 03:34:57;;;;;;;;;;;20.80;52.20;;;;;;5032612;28;19917;-72
2022/10/12 03:37:23;;;;;;;;;;;20.90;52.10;;;;;;5013574;28;21388;-72
2022/10/12 03:39:48;;;;;;;;;;;20.90;52.00;;;;;;5031223;28;19913;-72
2022/10/12 03:42:14;;;;;;;;;;;21.00;51.90;;;;;;5029081;28;19921;-72
2022/10/12 03:44:40;;;;;;;;;;;21.00;51.80;;;;;;5014896;28;19999;-72
2022/10/12 03:47:05;;;;;;;;;;;21.10;51.70;;;;;;5022941;28;20028;-72
2022/10/12 03:49:30;;;;;;;;;;;21.00;51.60;;;;;;5032693;28;19920;-72
2022/10/12 03:51:56;;;;;;;;;;;21.00;51.60;;;;;;5032457;28;20407;-72
2022/10/12 03:54:22;;;;;;;;;;;21.00;51.70;;;;;;5027305;28;20434;-72
2022/10/12 03:56:47;;;;;;;;;;;21.00;51.80;;;;;;5028137;28;20388;-73
2022/10/12 03:59:12;;;;;;;;;;;20.90;51.80;;;;;;5024689;28;20337;-72
2022/10/12 04:01:38;;;;;;;;;;;20.90;51.90;;;;;;5030785;28;20284;-72
2022/10/12 04:04:03;;;;;;;;;;;20.90;51.90;;;;;;5031410;28;19924;-72
2022/10/12 04:06:29;;;;;;;;;;;20.90;52.00;;;;;;5050345;28;20354;-72
2022/10/12 04:08:54;;;;;;;;;;;20.80;52.00;;;;;;5034391;28;20406;-72
2022/10/12 04:11:20;;;;;;;;;;;20.80;52.10;;;;;;5053069;28;19908;-72
2022/10/12 04:13:45;;;;;;;;;;;20.80;52.20;;;;;;5025598;28;19923;-72
2022/10/12 04:16:11;;;;;;;;;;;20.80;52.20;;;;;;5046491;28;20362;-72
2022/10/12 04:18:36;;;;;;;;;;;20.80;52.20;;;;;;5050564;28;20370;-72
2022/10/12 04:21:02;;;;;;;;;;;20.80;52.30;;;;;;5033175;28;19959;-72
2022/10/12 04:23:27;;;;;;;;;;;20.80;52.30;;;;;;5050941;28;19913;-72
2022/10/12 04:25:53;;;;;;;;;;;20.70;52.20;;;;;;5051730;28;19921;-73
2022/10/12 04:28:18;;;;;;;;;;;20.70;52.30;;;;;;5034379;28;19927;-72
2022/10/12 04:30:44;;;;;;;;;;;20.70;52.40;;;;;;5048420;28;19924;-72
2022/10/12 04:33:09;;;;;;;;;;;20.70;52.50;;;;;;5025084;28;20361;-72
2022/10/12 04:35:34;;;;;;;;;;;20.70;52.50;;;;;;5031226;28;19917;-72
2022/10/12 04:38:00;;;;;;;;;;;20.60;52.40;;;;;;5033549;28;19918;-72
2022/10/12 04:40:25;;;;;;;;;;;20.60;52.40;;;;;;5033869;28;19919;-72
2022/10/12 04:42:51;;;;;;;;;;;20.60;52.50;;;;;;5032319;28;20442;-72
2022/10/12 04:45:16;;;;;;;;;;;20.60;52.50;;;;;;5052293;28;20399;-72
2022/10/12 04:47:42;;;;;;;;;;;20.60;52.40;;;;;;5034266;28;20288;-72
2022/10/12 04:50:07;;;;;;;;;;;20.60;52.50;;;;;;5030155;28;19962;-72
2022/10/12 04:52:33;;;;;;;;;;;20.60;52.50;;;;;;5051139;28;19971;-72
2022/10/12 04:54:58;;;;;;;;;;;20.60;52.60;;;;;;5032458;28;19917;-72
2022/10/12 04:57:24;;;;;;;;;;;20.60;52.50;;;;;;5033216;28;19917;-72
2022/10/12 04:59:49;;;;;;;;;;;20.50;52.50;;;;;;5049349;28;19920;-72
2022/10/12 05:02:14;;;;;;;;;;;20.50;52.50;;;;;;5051006;28;19920;-72
2022/10/12 05:04:40;;;;;;;;;;;20.50;52.50;;;;;;5026844;28;19953;-72
2022/10/12 05:07:05;;;;;;;;;;;20.50;52.60;;;;;;5027891;28;19921;-71
2022/10/12 05:09:31;;;;;;;;;;;20.50;52.60;;;;;;5024029;28;20265;-71
2022/10/12 05:11:56;;;;;;;;;;;20.60;52.60;;;;;;5030868;28;19909;-73
2022/10/12 05:14:22;;;;;;;;;;;20.60;52.50;;;;;;5032064;28;20372;-72
2022/10/12 05:16:47;;;;;;;;;;;20.60;52.50;;;;;;5028662;28;20343;-72
2022/10/12 05:19:13;;;;;;;;;;;20.60;52.50;;;;;;5030960;28;19913;-72
2022/10/12 05:21:39;;;;;;;;;;;20.60;52.40;;;;;;5029500;28;20008;-72
2022/10/12 05:24:05;;;;;;;;;;;20.60;52.30;;;;;;5027866;28;19956;-72
2022/10/12 05:26:30;;;;;;;;;;;20.60;52.20;;;;;;5024741;28;19939;-72
2022/10/12 05:28:56;;;;;;;;;;;20.60;52.20;;;;;;5028256;28;19917;-75
2022/10/12 05:31:21;;;;;;;;;;;20.60;52.20;;;;;;5023095;28;19913;-74
2022/10/12 05:33:47;;;;;;;;;;;20.60;52.20;;;;;;5029824;28;19913;-74
2022/10/12 05:36:12;;;;;;;;;;;20.60;52.10;;;;;;5030711;28;19920;-72
2022/10/12 05:38:37;;;;;;;;;;;20.70;52.20;;;;;;5031623;28;19953;-72
2022/10/12 05:41:03;;;;;;;;;;;20.70;52.20;;;;;;5028453;28;20361;-72
2022/10/12 05:43:28;;;;;;;;;;;20.60;52.20;;;;;;5022339;28;20372;-72
2022/10/12 05:45:54;;;;;;;;;;;20.70;52.20;;;;;;5020766;28;20011;-74
2022/10/12 05:48:19;;;;;;;;;;;20.70;52.20;;;;;;5029115;28;20430;-73
2022/10/12 05:50:45;;;;;;;;;;;20.70;52.10;;;;;;5029736;28;20371;-72
2022/10/12 05:53:10;;;;;;;;;;;20.70;52.10;;;;;;5029169;28;20296;-72
2022/10/12 05:55:36;;;;;;;;;;;20.70;52.00;;;;;;5024036;28;20336;-72
2022/10/12 05:58:01;;;;;;;;;;;20.70;51.90;;;;;;5013187;28;20300;-72
2022/10/12 06:00:26;;;;;;;;;;;20.70;51.90;;;;;;5030871;28;19913;-72
2022/10/12 06:02:52;;;;;;;;;;;20.80;51.80;;;;;;5025724;28;19952;-71
2022/10/12 06:05:17;;;;;;;;;;;20.80;51.80;;;;;;5039520;28;19921;-72
2022/10/12 06:07:43;;;;;;;;;;;20.70;51.70;;;;;;5032089;28;19958;-72
2022/10/12 06:10:08;;;;;;;;;;;20.70;51.80;;;;;;5049635;28;20058;-72
2022/10/12 06:12:34;;;;;;;;;;;20.70;51.90;;;;;;5016531;28;20083;-72
2022/10/12 06:14:59;;;;;;;;;;;20.70;52.00;;;;;;5048781;28;19924;-72
2022/10/12 06:17:24;;;;;;;;;;;20.60;51.90;;;;;;5050430;28;19928;-73
2022/10/12 06:19:50;;;;;;;;;;;20.60;52.10;;;;;;5046926;28;19921;-74
2022/10/12 06:22:15;;;;;;;;;;;20.60;52.20;;;;;;5047919;28;20011;-74
2022/10/12 06:24:41;;;;;;;;;;;20.50;52.20;;;;;;5028353;28;19960;-72
2022/10/12 06:27:06;;;;;;;;;;;20.50;52.30;;;;;;5020197;28;20400;-72
2022/10/12 06:29:32;;;;;;;;;;;20.50;52.30;;;;;;5035018;28;19952;-72
2022/10/12 06:31:58;;;;;;;;;;;20.50;52.30;;;;;;5037629;28;19958;-72
2022/10/12 06:34:23;;;;;;;;;;;20.50;52.40;;;;;;5054800;28;20052;-72
2022/10/12 06:36:48;;;;;;;;;;;20.50;52.40;;;;;;5053977;28;19966;-72
2022/10/12 06:39:14;;;;;;;;;;;20.50;52.30;;;;;;5034391;28;19965;-74
2022/10/12 06:41:39;;;;;;;;;;;20.50;52.40;;;;;;5032272;28;19974;-72
2022/10/12 06:44:05;;;;;;;;;;;20.50;52.40;;;;;;5029340;28;20406;-74
2022/10/12 06:46:30;;;;;;;;;;;20.50;52.40;;;;;;5035288;28;20363;-73
2022/10/12 06:48:56;;;;;;;;;;;20.50;52.20;;;;;;5048090;28;19917;-72
2022/10/12 06:51:21;;;;;;;;;;;20.60;52.30;;;;;;5047727;28;19967;-72
2022/10/12 06:53:47;;;;;;;;;;;20.60;52.20;;;;;;5045898;28;19923;-74
2022/10/12 06:56:12;;;;;;;;;;;20.60;52.20;;;;;;5030683;28;19913;-72
2022/10/12 06:58:38;;;;;;;;;;;20.60;52.10;;;;;;5051758;28;19938;-72
2022/10/12 07:01:04;;;;;;;;;;;20.60;52.10;;;;;;5036209;28;19909;-72
2022/10/12 07:03:29;;;;;;;;;;;20.60;52.20;;;;;;5036257;28;19913;-72
2022/10/12 07:05:55;;;;;;;;;;;20.60;52.20;;;;;;5034253;28;19929;-71
2022/10/12 07:08:21;;;;;;;;;;;20.60;52.20;;;;;;5033501;28;20434;-74
2022/10/12 07:10:46;;;;;;;;;;;20.60;52.20;;;;;;5030745;28;20379;-73
2022/10/12 07:13:12;;;;;;;;;;;20.60;52.10;;;;;;5048145;28;20632;-72
2022/10/12 07:15:37;;;;;;;;;;;20.70;52.10;;;;;;5024075;28;19967;-71
2022/10/12 07:18:02;;;;;;;;;;;20.70;52.00;;;;;;5025641;28;19920;-72
2022/10/12 07:20:28;;;;;;;;;;;20.70;52.10;;;;;;5052677;28;20376;-72
2022/10/12 07:22:53;;;;;;;;;;;20.70;52.10;;;;;;5052223;28;19920;-72
2022/10/12 07:25:21;;;;;;;;;;;20.70;52.10;;;;;;5052617;28;19919;-71
2022/10/12 07:27:46;;;;;;;;;;;20.70;52.20;;;;;;5034241;28;19912;-73
2022/10/12 07:30:12;;;;;;;;;;;20.70;52.20;;;;;;5016545;28;19920;-74
2022/10/12 07:32:37;;;;;;;;;;;20.70;52.20;;;;;;5050662;28;19923;-73
2022/10/12 07:35:03;;;;;;;;;;;20.70;52.20;;;;;;5052637;28;19917;-73
2022/10/12 07:37:28;;;;;;;;;;;20.70;52.20;;;;;;5052752;28;20000;-73
2022/10/12 07:39:56;;;;;;;;;;;20.70;52.10;;;;;;5047941;28;20315;-73
2022/10/12 07:42:22;;;;;;;;;;;20.70;52.10;;;;;;5047396;28;19920;-74
2022/10/12 07:44:47;;;;;;;;;;;20.80;52.20;;;;;;5060181;28;19917;-74
2022/10/12 07:47:15;;;;;;;;;;;20.70;52.20;;;;;;5052176;28;19966;-74
2022/10/12 07:49:40;;;;;;;;;;;20.80;52.40;;;;;;5054690;28;19943;-74
2022/10/12 07:52:06;;;;;;;;;;;20.80;52.40;;;;;;5035694;28;21290;-75
2022/10/12 07:54:31;;;;;;;;;;;20.80;52.50;;;;;;5050306;28;20368;-74
2022/10/12 07:56:57;;;;;;;;;;;20.70;52.40;;;;;;5016027;28;20459;-74
2022/10/12 07:59:23;;;;;;;;;;;20.80;52.50;;;;;;5050668;28;20380;-74
2022/10/12 08:01:48;;;;;;;;;;;20.80;52.50;;;;;;5051711;28;20253;-73
2022/10/12 08:04:13;;;;;;;;;;;20.80;52.50;;;;;;5047265;28;19917;-72
2022/10/12 08:06:40;;;;;;;;;;;20.80;52.50;;;;;;5048991;28;20082;-73
2022/10/12 08:09:05;;;;;;;;;;;20.80;52.60;;;;;;5033193;28;19928;-72
2022/10/12 08:11:31;;;;;;;;;;;20.80;52.70;;;;;;5052865;28;19938;-74
2022/10/12 08:13:56;;;;;;;;;;;20.80;52.60;;;;;;5051521;28;20004;-75
2022/10/12 08:16:22;;;;;;;;;;;20.80;52.70;;;;;;5032977;28;20383;-73
2022/10/12 08:18:47;;;;;;;;;;;20.80;52.70;;;;;;5032419;28;20151;-74
2022/10/12 08:21:13;;;;;;;;;;;20.80;52.70;;;;;;5043596;28;20319;-74
2022/10/12 08:23:38;;;;;;;;;;;20.80;52.80;;;;;;5033859;28;19920;-74
2022/10/12 08:26:04;;;;;;;;;;;20.80;52.80;;;;;;5049279;28;19936;-74
2022/10/12 08:28:29;;;;;;;;;;;20.80;52.80;;;;;;5028789;28;20281;-73
2022/10/12 08:30:55;;;;;;;;;;;20.80;52.80;;;;;;5052181;28;19919;-75
2022/10/12 08:33:20;;;;;;;;;;;20.70;52.90;;;;;;5027458;28;20007;-74
2022/10/12 08:35:46;;;;;;;;;;;20.70;53.10;;;;;;5031677;28;19927;-73
2022/10/12 08:38:12;;;;;;;;;;;20.70;53.10;;;;;;5017060;28;19913;-73
2022/10/12 08:40:48;;;;;;;;;;;20.70;53.10;;;;;;5050928;28;19913;-73
2022/10/12 08:43:16;;;;;;;;;;;20.70;53.10;;;;;;5033296;28;19995;-74
2022/10/12 08:45:46;;;;;;;;;;;20.80;53.10;;;;;;5048734;28;20003;-74
2022/10/12 08:48:13;;;;;;;;;;;20.80;53.10;;;;;;5032725;28;19919;-74
2022/10/12 08:50:39;;;;;;;;;;;20.70;53.10;;;;;;5031489;28;20011;-74
2022/10/12 08:53:24;;;;;;;;;;;20.70;53.10;;;;;;5046282;28;19975;-74
2022/10/12 08:55:51;;;;;;;;;;;20.70;52.90;;;;;;5049595;28;19917;-74
2022/10/12 08:58:19;;;;;;;;;;;20.80;53.00;;;;;;5039670;28;19971;-74
2022/10/12 09:00:49;;;;;;;;;;;20.80;52.90;;;;;;5034272;28;19913;-74
2022/10/12 09:03:18;;;;;;;;;;;20.80;52.90;;;;;;5030261;28;19967;-73
2022/10/12 09:06:06;;;;;;;;;;;20.90;53.00;;;;;;5031286;28;20363;-74
2022/10/12 09:09:04;;;;;;;;;;;20.90;52.90;;;;;;5044728;28;19913;-74
2022/10/12 09:11:37;;;;;;;;;;;20.90;52.90;;;;;;5014199;28;19974;-74
2022/10/12 09:14:10;;;;;;;;;;;20.90;52.80;;;;;;5035106;28;19908;-74
2022/10/12 09:16:38;;;;;;;;;;;20.90;52.80;;;;;;5034876;28;20367;-73
2022/10/12 09:19:06;;;;;;;;;;;21.00;52.80;;;;;;5052895;28;19913;-73
2022/10/12 09:21:31;;;;;;;;;;;21.00;52.80;;;;;;5035547;28;19920;-74
2022/10/12 09:23:57;;;;;;;;;;;20.90;52.70;;;;;;5051672;28;20316;-74
2022/10/12 09:26:31;;;;;;;;;;;21.00;52.90;;;;;;5029034;28;20846;-74
2022/10/12 09:28:57;;;;;;;;;;;21.00;52.80;;;;;;5045782;28;20536;-74
2022/10/12 09:31:35;;;;;;;;;;;21.00;52.90;;;;;;5045413;28;19916;-73
2022/10/12 09:34:01;;;;;;;;;;;21.00;52.80;;;;;;5053163;28;20035;-73
2022/10/12 09:36:31;;;;;;;;;;;21.00;52.90;;;;;;5039837;28;19928;-73
2022/10/12 09:38:56;;;;;;;;;;;21.00;52.70;;;;;;5030082;28;19956;-73
2022/10/12 09:41:26;;;;;;;;;;;21.10;53.30;;;;;;5050142;28;20415;-73
2022/10/12 09:43:55;;;;;;;;;;;21.20;53.20;;;;;;5028227;28;19982;-73
2022/10/12 09:46:36;;;;;;;;;;;21.40;52.90;;;;;;5028658;28;19924;-73
2022/10/12 09:49:02;;;;;;;;;;;21.60;52.60;;;;;;5060078;28;19966;-74
2022/10/12 09:51:28;;;;;;;;;;;21.90;52.20;;;;;;5033000;28;19917;-73
2022/10/12 09:53:53;;;;;;;;;;;22.20;51.80;;;;;;5031235;28;19913;-74
2022/10/12 09:56:23;;;;;;;;;;;22.30;51.40;;;;;;5050321;28;19920;-73
2022/10/12 09:58:49;;;;;;;;;;;22.50;51.10;;;;;;5032261;28;20388;-74
2022/10/12 10:01:17;;;;;;;;;;;22.50;50.90;;;;;;5030875;28;19913;-73
2022/10/12 10:03:44;;;;;;;;;;;22.60;50.90;;;;;;5031887;28;19956;-73
2022/10/12 10:06:09;;;;;;;;;;;22.50;50.90;;;;;;5010802;28;20413;-73
2022/10/12 10:08:38;;;;;;;;;;;22.50;51.00;;;;;;5018845;28;19928;-74
2022/10/12 10:11:03;;;;;;;;;;;22.40;51.20;;;;;;5009398;28;20332;-74
2022/10/12 10:13:29;;;;;;;;;;;22.40;51.30;;;;;;5020260;28;19956;-74
2022/10/12 10:16:05;;;;;;;;;;;22.30;52.00;;;;;;5010311;28;19956;-73
2022/10/12 10:18:34;;;;;;;;;;;22.20;51.60;;;;;;4988627;28;20466;-72
2022/10/12 10:21:01;;;;;;;;;;;22.20;51.70;;;;;;5019813;28;19913;-74
2022/10/12 10:23:27;;;;;;;;;;;22.10;51.40;;;;;;5006943;28;20000;-73
2022/10/12 10:25:56;;;;;;;;;;;22.10;51.50;;;;;;5018826;28;20543;-74
2022/10/12 10:28:23;;;;;;;;;;;22.10;51.60;;;;;;5008885;28;20319;-74
2022/10/12 10:30:55;;;;;;;;;;;22.10;51.70;;;;;;5010212;28;20370;-74
2022/10/12 10:33:20;;;;;;;;;;;22.10;51.60;;;;;;5004958;28;20285;-74
2022/10/12 10:35:59;;;;;;;;;;;22.10;51.60;;;;;;5026539;28;19909;-73
2022/10/12 10:38:25;;;;;;;;;;;22.00;51.50;;;;;;5014178;28;19921;-74
2022/10/12 10:40:50;;;;;;;;;;;22.00;51.60;;;;;;5017790;28;20293;-73
2022/10/12 10:43:19;;;;;;;;;;;22.00;51.70;;;;;;5013135;28;20254;-74
2022/10/12 10:45:51;;;;;;;;;;;22.00;51.80;;;;;;5022605;28;19940;-74
2022/10/12 10:48:20;;;;;;;;;;;21.90;51.80;;;;;;5015227;28;19920;-74
2022/10/12 10:50:50;;;;;;;;;;;21.90;51.90;;;;;;5014803;28;20407;-74
2022/10/12 10:53:20;;;;;;;;;;;21.90;51.90;;;;;;5029093;28;19944;-73
2022/10/12 10:55:47;;;;;;;;;;;21.80;52.00;;;;;;5007315;28;19937;-74
2022/10/12 10:58:18;;;;;;;;;;;21.90;52.20;;;;;;5003505;28;19920;-73
2022/10/12 11:00:44;;;;;;;;;;;21.80;52.30;;;;;;5009245;28;20353;-74
2022/10/12 11:03:15;;;;;;;;;;;21.70;52.20;;;;;;4995417;28;19925;-73
2022/10/12 11:05:44;;;;;;;;;;;21.70;52.40;;;;;;4997443;28;19975;-73
2022/10/12 11:08:11;;;;;;;;;;;21.70;52.60;;;;;;5014187;28;19922;-74
2022/10/12 11:10:47;;;;;;;;;;;21.70;52.80;;;;;;5000579;28;20012;-73
2022/10/12 11:13:12;;;;;;;;;;;21.60;52.80;;;;;;5027254;28;20009;-73
2022/10/12 11:15:41;;;;;;;;;;;21.60;52.70;;;;;;5017035;28;20191;-73
2022/10/12 11:18:10;;;;;;;;;;;21.60;52.80;;;;;;5015092;28;19913;-74
2022/10/12 11:20:38;;;;;;;;;;;21.70;52.70;;;;;;5014787;28;20337;-73
2022/10/12 11:23:12;;;;;;;;;;;21.70;52.70;;;;;;5016193;28;20284;-74
2022/10/12 11:25:44;;;;;;;;;;;21.70;52.60;;;;;;5028177;28;19921;-74
2022/10/12 11:28:09;;;;;;;;;;;21.70;52.40;;;;;;5018977;28;19964;-74
2022/10/12 11:30:37;;;;;;;;;;;21.80;52.40;;;;;;5012882;28;19972;-74
2022/10/12 11:33:08;;;;;;;;;;;21.80;52.30;;;;;;5024499;28;19909;-75
2022/10/12 11:35:34;;;;;;;;;;;21.80;52.20;;;;;;5013152;28;20000;-74
2022/10/12 11:38:00;;;;;;;;;;;21.80;52.30;;;;;;5012345;28;20839;-73
2022/10/12 11:40:46;;;;;;;;;;;21.80;52.20;;;;;;4996322;28;19928;-74
2022/10/12 11:43:16;;;;;;;;;;;21.80;52.20;;;;;;5012433;28;19998;-74
2022/10/12 11:45:42;;;;;;;;;;;21.80;52.30;;;;;;5026445;28;19917;-74
2022/10/12 11:48:12;;;;;;;;;;;21.90;52.40;;;;;;5013386;28;19917;-74
2022/10/12 11:50:38;;;;;;;;;;;21.80;52.30;;;;;;5016651;28;19913;-73
2022/10/12 11:53:12;;;;;;;;;;;21.90;52.20;;;;;;5013745;28;19914;-74
2022/10/12 11:55:52;;;;;;;;;;;21.90;52.10;;;;;;5007619;28;19921;-74
2022/10/12 11:58:19;;;;;;;;;;;21.90;52.00;;;;;;5002878;28;20393;-74
2022/10/12 12:00:57;;;;;;;;;;;21.90;52.00;;;;;;5009257;28;19924;-74
2022/10/12 12:03:25;;;;;;;;;;;21.90;52.10;;;;;;5005684;28;19933;-74
2022/10/12 12:05:51;;;;;;;;;;;21.80;52.00;;;;;;5035078;28;20392;-74
2022/10/12 12:08:22;;;;;;;;;;;21.80;52.10;;;;;;5030672;28;19912;-73
2022/10/12 12:10:52;;;;;;;;;;;21.90;52.10;;;;;;5030743;28;20050;-74
2022/10/12 12:13:21;;;;;;;;;;;21.80;52.00;;;;;;5043900;28;19913;-73
2022/10/12 12:15:48;;;;;;;;;;;21.80;52.20;;;;;;5046008;28;19913;-73
2022/10/12 12:18:20;;;;;;;;;;;21.80;52.30;;;;;;5046439;28;19928;-73
2022/10/12 12:20:45;;;;;;;;;;;21.70;52.50;;;;;;5043705;28;19952;-73
2022/10/12 12:23:23;;;;;;;;;;;21.70;52.60;;;;;;5047361;28;19955;-74
2022/10/12 12:26:05;;;;;;;;;;;21.70;52.60;;;;;;5028028;28;19917;-74
2022/10/12 12:28:31;;;;;;;;;;;21.70;52.60;;;;;;5028859;28;19913;-74
2022/10/12 12:30:59;;;;;;;;;;;21.60;52.50;;;;;;5023589;28;21291;-74
2022/10/12 12:33:29;;;;;;;;;;;21.70;52.60;;;;;;5026417;28;19951;-73
2022/10/12 12:36:04;;;;;;;;;;;21.70;52.50;;;;;;5012217;28;19919;-73
2022/10/12 12:38:37;;;;;;;;;;;21.70;52.50;;;;;;5026931;28;20388;-74
2022/10/12 12:41:05;;;;;;;;;;;21.70;52.30;;;;;;5040998;28;20448;-74
2022/10/12 12:43:31;;;;;;;;;;;21.80;52.20;;;;;;5044938;28;20007;-73
2022/10/12 12:45:57;;;;;;;;;;;21.80;52.00;;;;;;5047019;28;23950;-73
2022/10/12 12:48:38;;;;;;;;;;;21.90;51.90;;;;;;5031036;28;20335;-73
2022/10/12 12:51:08;;;;;;;;;;;21.90;52.00;;;;;;5046779;28;20011;-74
2022/10/12 12:53:54;;;;;;;;;;;21.90;51.80;;;;;;5034646;28;20356;-73
2022/10/12 12:56:22;;;;;;;;;;;22.00;51.80;;;;;;5032165;28;19912;-74
2022/10/12 12:59:07;;;;;;;;;;;22.00;51.70;;;;;;5014218;28;19912;-74
2022/10/12 13:01:38;;;;;;;;;;;22.00;51.60;;;;;;5045305;28;19920;-73
2022/10/12 13:04:17;;;;;;;;;;;22.00;51.60;;;;;;5047669;28;19917;-74
2022/10/12 13:06:53;;;;;;;;;;;22.00;51.60;;;;;;5014700;28;19921;-74
2022/10/12 13:09:34;;;;;;;;;;;22.00;51.80;;;;;;5027629;28;20306;-73
2022/10/12 13:12:00;;;;;;;;;;;22.00;51.80;;;;;;5046386;28;19996;-74
2022/10/12 13:14:29;;;;;;;;;;;22.00;51.80;;;;;;5041947;28;19917;-73
2022/10/12 13:16:58;;;;;;;;;;;22.00;51.90;;;;;;5028040;28;20277;-74
2022/10/12 13:19:23;;;;;;;;;;;22.00;51.80;;;;;;5045223;28;19919;-74
2022/10/12 13:21:50;;;;;;;;;;;22.00;51.60;;;;;;5042498;28;19921;-74
2022/10/12 13:24:23;;;;;;;;;;;22.00;51.60;;;;;;5027528;28;19921;-74
2022/10/12 13:26:49;;;;;;;;;;;21.90;51.80;;;;;;5011317;28;20284;-73
2022/10/12 13:29:22;;;;;;;;;;;22.00;51.70;;;;;;5042362;28;21756;-73
2022/10/12 13:31:47;;;;;;;;;;;21.90;51.80;;;;;;5031251;28;19913;-73
2022/10/12 13:34:18;;;;;;;;;;;21.90;51.50;;;;;;5029452;28;19920;-73
2022/10/12 13:36:45;;;;;;;;;;;21.80;51.10;;;;;;5030848;28;19920;-74
2022/10/12 13:39:15;;;;;;;;;;;21.70;51.00;;;;;;5032297;28;19947;-73
2022/10/12 13:41:40;;;;;;;;;;;21.60;50.50;;;;;;5047501;28;20299;-73
2022/10/12 13:44:06;;;;;;;;;;;21.60;50.30;;;;;;5032011;28;19921;-73
2022/10/12 13:46:31;;;;;;;;;;;21.60;50.10;;;;;;5045582;28;19917;-74
2022/10/12 13:48:57;;;;;;;;;;;21.50;49.40;;;;;;5049367;28;19920;-74
2022/10/12 13:51:23;;;;;;;;;;;21.50;48.70;;;;;;5051644;28;19931;-74
2022/10/12 13:53:49;;;;;;;;;;;21.50;48.30;;;;;;5033035;28;19913;-73
2022/10/12 13:56:15;;;;;;;;;;;21.50;48.20;;;;;;5032885;28;19916;-74
2022/10/12 13:58:41;;;;;;;;;;;21.50;48.20;;;;;;5052768;28;19909;-73
2022/10/12 14:01:06;;;;;;;;;;;21.50;48.10;;;;;;5047536;28;19975;-73
2022/10/12 14:03:36;;;;;;;;;;;21.50;48.00;;;;;;5034131;28;19962;-72
2022/10/12 14:06:01;;;;;;;;;;;21.40;47.60;;;;;;5034033;28;19939;-74
2022/10/12 14:08:27;;;;;;;;;;;21.30;48.80;;;;;;5043137;28;19913;-73
2022/10/12 14:10:53;;;;;;;;;;;21.20;48.50;;;;;;5051907;28;19952;-74
2022/10/12 14:13:36;;;;;;;;;;;21.30;48.20;;;;;;5035910;28;19913;-74
2022/10/12 14:16:03;;;;;;;;;;;21.30;47.70;;;;;;5035129;28;19909;-74
2022/10/12 14:18:38;;;;;;;;;;;21.40;47.30;;;;;;5034784;28;20005;-74